createdAt,value
2023-11-30T00:00:34.296Z,98401.36
2023-11-30T00:03:02.279Z,98399.30
2023-11-30T00:05:30.060Z,98399.42
2023-11-30T00:07:57.709Z,98389.12
2023-11-30T00:10:25.272Z,98391.32
2023-11-30T00:12:52.928Z,98390.83
2023-11-30T00:15:20.535Z,98392.79
2023-11-30T00:17:48.235Z,98390.17
2023-11-30T00:20:16.022Z,98391.38
2023-11-30T00:22:43.590Z,98386.18
2023-11-30T00:25:11.240Z,98387.13
2023-11-30T00:27:38.797Z,98391.89
2023-11-30T00:30:06.490Z,98390.55
2023-11-30T00:32:34.144Z,98387.38
2023-11-30T00:35:01.676Z,98391.00
2023-11-30T00:37:29.364Z,98392.83
2023-11-30T00:39:57.104Z,98393.30
2023-11-30T00:42:24.721Z,98395.89
2023-11-30T00:44:52.562Z,98398.08
2023-11-30T00:47:20.701Z,98397.22
2023-11-30T00:49:48.278Z,98395.02
2023-11-30T00:52:15.841Z,98396.17
2023-11-30T00:54:43.482Z,98398.31
2023-11-30T00:57:11.178Z,98399.08
2023-11-30T00:59:38.818Z,98402.95
2023-11-30T01:02:06.488Z,98405.17
2023-11-30T01:04:34.024Z,98404.04
2023-11-30T01:07:01.684Z,98409.70
2023-11-30T01:09:29.598Z,98407.80
2023-11-30T01:11:57.429Z,98408.97
2023-11-30T01:14:24.967Z,98408.95
2023-11-30T01:16:52.649Z,98402.87
2023-11-30T01:19:20.297Z,98402.45
2023-11-30T01:21:47.855Z,98411.06
2023-11-30T01:24:15.530Z,98408.39
2023-11-30T01:26:43.072Z,98407.80
2023-11-30T01:29:11.039Z,98406.71
2023-11-30T01:31:38.729Z,98408.33
2023-11-30T01:34:06.461Z,98414.54
2023-11-30T01:36:34.146Z,98417.05
2023-11-30T01:39:01.938Z,98422.51
2023-11-30T01:41:29.657Z,98423.02
2023-11-30T01:43:57.331Z,98419.35
2023-11-30T01:46:25.030Z,98419.58
2023-11-30T01:48:52.817Z,98417.17
2023-11-30T01:51:20.836Z,98414.45
2023-11-30T01:53:48.493Z,98417.45
2023-11-30T01:56:16.035Z,98421.64
2023-11-30T01:58:43.595Z,98416.09
2023-11-30T02:01:11.369Z,98420.23
2023-11-30T02:03:39.231Z,98413.34
2023-11-30T02:06:06.803Z,98408.85
2023-11-30T02:08:34.446Z,98406.58
2023-11-30T02:11:01.998Z,98404.19
2023-11-30T02:13:29.566Z,98401.98
2023-11-30T02:15:57.545Z,98404.05
2023-11-30T02:18:25.127Z,98399.82
2023-11-30T02:20:52.912Z,98397.80
2023-11-30T02:23:20.516Z,98396.80
2023-11-30T02:25:48.061Z,98392.06
2023-11-30T02:28:15.629Z,98393.16
2023-11-30T02:30:43.301Z,98386.92
2023-11-30T02:33:10.896Z,98387.67
2023-11-30T02:35:38.608Z,98389.16
2023-11-30T02:38:06.476Z,98393.56
2023-11-30T02:40:34.242Z,98392.89
2023-11-30T02:43:01.816Z,98393.60
2023-11-30T02:45:29.496Z,98394.51
2023-11-30T02:47:57.175Z,98388.64
2023-11-30T02:50:24.979Z,98391.75
2023-11-30T02:52:52.549Z,98392.57
2023-11-30T02:55:20.129Z,98390.94
2023-11-30T02:57:47.664Z,98384.61
2023-11-30T03:00:15.780Z,98384.89
2023-11-30T03:02:43.523Z,98380.34
2023-11-30T03:05:11.162Z,98379.35
2023-11-30T03:07:38.820Z,98378.41
2023-11-30T03:10:06.385Z,98379.70
2023-11-30T03:12:34.084Z,98378.46
2023-11-30T03:15:01.745Z,98379.01
2023-11-30T03:17:29.492Z,98376.48
2023-11-30T03:19:57.034Z,98377.92
2023-11-30T03:22:24.994Z,98375.39
2023-11-30T03:24:52.387Z,98377.08
2023-11-30T03:27:20.040Z,98384.89
2023-11-30T03:29:47.774Z,98386.14
2023-11-30T03:32:15.573Z,98385.50
2023-11-30T03:34:43.089Z,98381.85
2023-11-30T03:37:10.819Z,98383.40
2023-11-30T03:39:38.669Z,98383.13
2023-11-30T03:42:06.371Z,98383.23
2023-11-30T03:44:34.476Z,98379.45
2023-11-30T03:47:02.023Z,98378.70
2023-11-30T03:49:29.704Z,98379.27
2023-11-30T03:51:57.341Z,98381.48
2023-11-30T03:54:25.037Z,98376.27
2023-11-30T03:56:52.888Z,98377.48
2023-11-30T03:59:20.665Z,98373.50
2023-11-30T04:01:48.317Z,98370.01
2023-11-30T04:04:16.065Z,98372.48
2023-11-30T04:06:43.718Z,98374.55
2023-11-30T04:09:11.416Z,98376.59
2023-11-30T04:11:39.033Z,98369.45
2023-11-30T04:14:06.779Z,98364.20
2023-11-30T04:16:34.496Z,98360.84
2023-11-30T04:19:02.227Z,98362.10
2023-11-30T04:21:29.912Z,98362.00
2023-11-30T04:23:57.579Z,98359.92
2023-11-30T04:26:25.105Z,98352.77
2023-11-30T04:28:52.795Z,98357.17
2023-11-30T04:31:20.492Z,98354.11
2023-11-30T04:33:48.252Z,98351.89
2023-11-30T04:36:15.982Z,98349.20
2023-11-30T04:38:43.726Z,98345.81
2023-11-30T04:41:11.285Z,98340.80
2023-11-30T04:43:38.953Z,98333.78
2023-11-30T04:46:06.362Z,98330.50
2023-11-30T04:48:34.379Z,98327.73
2023-11-30T04:51:02.055Z,98327.86
2023-11-30T04:53:29.691Z,98321.54
2023-11-30T04:55:57.244Z,98325.45
2023-11-30T04:58:24.827Z,98328.02
2023-11-30T05:00:52.482Z,98329.45
2023-11-30T05:03:20.260Z,98332.34
2023-11-30T05:05:48.091Z,98330.16
2023-11-30T05:08:15.760Z,98329.67
2023-11-30T05:10:43.315Z,98330.52
2023-11-30T05:13:11.201Z,98325.67
2023-11-30T05:15:38.766Z,98323.67
2023-11-30T05:18:06.364Z,98323.38
2023-11-30T05:20:34.085Z,98325.39
2023-11-30T05:23:01.731Z,98324.77
2023-11-30T05:25:29.285Z,98320.06
2023-11-30T05:27:56.951Z,98322.48
2023-11-30T05:30:24.630Z,98325.58
2023-11-30T05:32:52.768Z,98329.04
2023-11-30T05:35:20.558Z,98331.35
2023-11-30T05:37:48.206Z,98339.29
2023-11-30T05:40:15.769Z,98341.50
2023-11-30T05:42:43.324Z,98343.37
2023-11-30T05:45:11.016Z,98342.36
2023-11-30T05:47:38.578Z,98338.85
2023-11-30T05:50:06.207Z,98338.35
2023-11-30T05:52:33.763Z,98344.88
2023-11-30T05:55:01.905Z,98346.94
2023-11-30T05:57:29.609Z,98347.11
2023-11-30T05:59:57.282Z,98345.95
2023-11-30T06:02:25.129Z,98350.04
2023-11-30T06:04:52.936Z,98349.30
2023-11-30T06:07:20.854Z,98353.91
2023-11-30T06:09:48.426Z,98357.41
2023-11-30T06:12:16.003Z,98360.61
2023-11-30T06:14:43.528Z,98361.80
2023-11-30T06:17:11.194Z,98367.34
2023-11-30T06:19:38.747Z,98368.63
2023-11-30T06:22:06.417Z,98367.05
2023-11-30T06:24:34.020Z,98371.63
2023-11-30T06:27:01.733Z,98376.00
2023-11-30T06:29:29.292Z,98377.35
2023-11-30T06:31:56.948Z,98381.39
2023-11-30T06:34:24.510Z,98379.20
2023-11-30T06:36:52.072Z,98379.76
2023-11-30T06:39:19.650Z,98379.80
2023-11-30T06:41:47.283Z,98385.43
2023-11-30T06:44:15.081Z,98385.48
2023-11-30T06:46:42.876Z,98387.38
2023-11-30T06:49:10.475Z,98386.88
2023-11-30T06:51:38.183Z,98387.69
2023-11-30T06:54:05.946Z,98391.52
2023-11-30T06:56:33.871Z,98392.63
2023-11-30T06:59:01.434Z,98393.93
2023-11-30T07:01:29.115Z,98395.06
2023-11-30T07:03:56.913Z,98395.36
2023-11-30T07:06:24.765Z,98392.27
2023-11-30T07:08:52.487Z,98392.08
2023-11-30T07:11:20.042Z,98398.80
2023-11-30T07:13:47.602Z,98396.77
2023-11-30T07:16:15.198Z,98396.55
2023-11-30T07:18:43.274Z,98395.28
2023-11-30T07:21:10.925Z,98397.09
2023-11-30T07:23:38.556Z,98404.23
2023-11-30T07:26:05.905Z,98400.58
2023-11-30T07:28:33.588Z,98407.16
2023-11-30T07:31:01.139Z,98406.16
2023-11-30T07:33:28.845Z,98401.56
2023-11-30T07:35:56.563Z,98397.95
2023-11-30T07:38:24.115Z,98395.50
2023-11-30T07:40:51.672Z,98391.21
2023-11-30T07:43:19.541Z,98391.27
2023-11-30T07:45:47.333Z,98388.09
2023-11-30T07:48:15.274Z,98394.39
2023-11-30T07:50:43.031Z,98394.95
2023-11-30T07:53:10.594Z,98394.69
2023-11-30T07:55:38.256Z,98388.35
2023-11-30T07:58:05.813Z,98389.71
2023-11-30T08:00:33.473Z,98386.10
2023-11-30T08:03:01.085Z,98385.25
2023-11-30T08:05:29.207Z,98381.63
2023-11-30T08:07:56.784Z,98379.48
2023-11-30T08:10:24.426Z,98381.94
2023-11-30T08:12:52.118Z,98388.01
2023-11-30T08:15:19.884Z,98388.38
2023-11-30T08:17:47.639Z,98388.61
2023-11-30T08:20:15.467Z,98390.91
2023-11-30T08:22:43.257Z,98388.91
2023-11-30T08:25:11.112Z,98392.64
2023-11-30T08:27:38.817Z,98391.66
2023-11-30T08:30:06.578Z,98392.10
2023-11-30T08:32:34.197Z,98388.36
2023-11-30T08:35:01.965Z,98387.11
2023-11-30T08:37:29.628Z,98392.39
2023-11-30T08:39:57.184Z,98393.00
2023-11-30T08:42:24.771Z,98394.80
2023-11-30T08:44:52.414Z,98396.98
2023-11-30T08:47:20.064Z,98396.50
2023-11-30T08:49:47.627Z,98394.37
2023-11-30T08:52:15.289Z,98396.52
2023-11-30T08:54:42.977Z,98398.95
2023-11-30T08:57:10.770Z,98395.87
2023-11-30T08:59:38.364Z,98394.74
2023-11-30T09:02:06.136Z,98387.76
2023-11-30T09:04:33.834Z,98390.88
2023-11-30T09:07:01.763Z,98390.45
2023-11-30T09:09:29.370Z,98390.17
2023-11-30T09:11:57.189Z,98395.25
2023-11-30T09:14:24.745Z,98396.65
2023-11-30T09:16:52.652Z,98393.80
2023-11-30T09:19:20.168Z,98389.89
2023-11-30T09:21:47.745Z,98395.49
2023-11-30T09:24:15.324Z,98390.48
2023-11-30T09:26:45.313Z,98388.10
2023-11-30T09:29:13.605Z,98387.23
2023-11-30T09:31:41.280Z,98381.04
2023-11-30T09:34:09.015Z,98383.98
2023-11-30T09:36:36.675Z,98384.56
2023-11-30T09:39:04.345Z,98385.61
2023-11-30T09:41:31.885Z,98383.30
2023-11-30T09:44:00.326Z,98382.23
2023-11-30T09:46:28.157Z,98380.68
2023-11-30T09:48:56.113Z,98371.48
2023-11-30T09:51:23.671Z,98362.94
2023-11-30T09:53:51.320Z,98354.80
2023-11-30T09:56:18.876Z,98348.42
2023-11-30T09:58:46.450Z,98343.52
2023-11-30T10:01:14.321Z,98337.67
2023-11-30T10:03:42.126Z,98338.99
2023-11-30T10:06:09.759Z,98335.02
2023-11-30T10:08:37.390Z,98332.77
2023-11-30T10:11:04.967Z,98326.61
2023-11-30T10:13:32.927Z,98329.61
2023-11-30T10:16:00.697Z,98328.81
2023-11-30T10:18:29.982Z,98328.68
2023-11-30T10:20:57.841Z,98328.48
2023-11-30T10:23:25.400Z,98328.69
2023-11-30T10:25:52.958Z,98326.58
2023-11-30T10:28:20.524Z,98319.89
2023-11-30T10:30:48.217Z,98318.34
2023-11-30T10:33:16.100Z,98313.02
2023-11-30T10:35:43.917Z,98312.34
2023-11-30T10:38:11.568Z,98311.53
2023-11-30T10:40:39.122Z,98308.88
2023-11-30T10:43:06.690Z,98312.75
2023-11-30T10:45:34.378Z,98312.09
2023-11-30T10:48:01.953Z,98313.05
2023-11-30T10:50:29.567Z,98311.64
2023-11-30T10:52:57.229Z,98307.77
2023-11-30T10:55:24.804Z,98307.70
2023-11-30T10:57:54.842Z,98305.14
2023-11-30T11:00:22.607Z,98308.00
2023-11-30T11:02:50.516Z,98303.47
2023-11-30T11:05:18.197Z,98301.81
2023-11-30T11:07:45.882Z,98300.76
2023-11-30T11:10:13.542Z,98297.14
2023-11-30T11:12:41.298Z,98298.48
2023-11-30T11:15:10.929Z,98294.14
2023-11-30T11:17:40.614Z,98288.78
2023-11-30T11:20:08.474Z,98293.41
2023-11-30T11:22:36.036Z,98291.30
2023-11-30T11:25:03.804Z,98287.61
2023-11-30T11:27:31.670Z,98283.54
2023-11-30T11:29:59.541Z,98287.53
2023-11-30T11:32:27.200Z,98283.23
2023-11-30T11:34:54.957Z,98284.11
2023-11-30T11:37:22.516Z,98275.35
2023-11-30T11:39:50.568Z,98278.17
2023-11-30T11:42:18.283Z,98278.80
2023-11-30T11:44:46.069Z,98279.11
2023-11-30T11:47:13.688Z,98271.75
2023-11-30T11:49:41.329Z,98266.09
2023-11-30T11:52:08.992Z,98262.55
2023-11-30T11:54:36.578Z,98260.83
2023-11-30T11:57:04.184Z,98258.34
2023-11-30T11:59:31.777Z,98255.45
2023-11-30T12:01:59.945Z,98255.10
2023-11-30T12:04:27.826Z,98256.40
2023-11-30T12:06:55.474Z,98259.27
2023-11-30T12:09:23.167Z,98252.14
2023-11-30T12:11:50.899Z,98252.52
2023-11-30T12:14:18.675Z,98253.49
2023-11-30T12:16:46.255Z,98244.50
2023-11-30T12:19:14.285Z,98236.81
2023-11-30T12:21:42.775Z,98228.22
2023-11-30T12:24:10.667Z,98227.17
2023-11-30T12:26:38.401Z,98226.02
2023-11-30T12:29:05.987Z,98219.04
2023-11-30T12:31:33.759Z,98211.75
2023-11-30T12:34:01.458Z,98203.01
2023-11-30T12:36:29.196Z,98201.64
2023-11-30T12:38:57.007Z,98199.14
2023-11-30T12:41:24.574Z,98193.78
2023-11-30T12:43:52.536Z,98195.37
2023-11-30T12:46:20.213Z,98194.06
2023-11-30T12:48:47.793Z,98190.94
2023-11-30T12:51:15.552Z,98188.20
2023-11-30T12:53:43.192Z,98182.26
2023-11-30T12:56:10.661Z,98181.33
2023-11-30T12:58:38.199Z,98183.91
2023-11-30T13:01:05.871Z,98186.09
2023-11-30T13:03:33.435Z,98189.71
2023-11-30T13:06:01.106Z,98188.14
2023-11-30T13:08:29.059Z,98188.72
2023-11-30T13:10:56.725Z,98199.73
2023-11-30T13:13:33.762Z,98205.25
2023-11-30T13:16:08.935Z,98205.92
2023-11-30T13:18:36.613Z,98208.27
2023-11-30T13:21:04.353Z,98205.42
2023-11-30T13:23:31.906Z,98205.13
2023-11-30T13:25:59.571Z,98208.20
2023-11-30T13:28:30.020Z,98212.27
2023-11-30T13:31:00.774Z,98208.17
2023-11-30T13:33:28.818Z,98208.42
2023-11-30T13:35:56.394Z,98203.88
2023-11-30T13:38:24.228Z,98206.50
2023-11-30T13:40:51.889Z,98205.92
2023-11-30T13:43:19.452Z,98202.87
2023-11-30T13:45:47.195Z,98196.23
2023-11-30T13:48:14.906Z,98201.02
2023-11-30T13:50:50.173Z,98199.71
2023-11-30T13:53:24.527Z,98188.73
2023-11-30T13:55:52.190Z,98192.52
2023-11-30T13:58:19.755Z,98187.77
2023-11-30T14:00:47.443Z,98192.06
2023-11-30T14:03:15.210Z,98197.04
2023-11-30T14:05:42.937Z,98197.13
2023-11-30T14:08:10.599Z,98199.80
2023-11-30T14:10:38.270Z,98203.40
2023-11-30T14:13:05.927Z,98206.99
2023-11-30T14:15:33.979Z,98201.66
2023-11-30T14:18:01.797Z,98203.01
2023-11-30T14:20:29.521Z,98198.04
2023-11-30T14:22:57.177Z,98194.30
2023-11-30T14:25:24.842Z,98193.52
2023-11-30T14:27:52.415Z,98199.39
2023-11-30T14:30:20.253Z,98195.63
2023-11-30T14:32:48.071Z,98190.86
2023-11-30T14:35:15.996Z,98188.12
2023-11-30T14:37:43.564Z,98189.30
2023-11-30T14:40:11.119Z,98187.73
2023-11-30T14:42:39.122Z,98187.95
2023-11-30T14:45:07.838Z,98184.27
2023-11-30T14:47:37.501Z,98182.40
2023-11-30T14:50:05.051Z,98188.04
2023-11-30T14:52:32.706Z,98191.46
2023-11-30T14:55:00.499Z,98195.42
2023-11-30T14:57:28.345Z,98196.45
2023-11-30T14:59:55.993Z,98200.84
2023-11-30T15:02:23.679Z,98197.39
2023-11-30T15:04:51.330Z,98196.73
2023-11-30T15:07:18.971Z,98191.87
2023-11-30T15:09:46.582Z,98193.45
2023-11-30T15:12:14.312Z,98193.50
2023-11-30T15:14:41.951Z,98190.88
2023-11-30T15:17:10.034Z,98193.18
2023-11-30T15:19:37.592Z,98194.70
2023-11-30T15:22:05.249Z,98194.23
2023-11-30T15:24:32.980Z,98198.48
2023-11-30T15:27:00.779Z,98198.33
2023-11-30T15:29:28.439Z,98202.28
2023-11-30T15:31:56.003Z,98207.79
2023-11-30T15:34:23.614Z,98204.98
2023-11-30T15:36:51.706Z,98203.52
2023-11-30T15:39:19.511Z,98203.23
2023-11-30T15:41:47.068Z,98204.52
2023-11-30T15:44:14.613Z,98210.46
2023-11-30T15:46:42.269Z,98209.79
2023-11-30T15:49:09.825Z,98207.55
2023-11-30T15:51:37.599Z,98213.67
2023-11-30T15:54:05.320Z,98210.70
2023-11-30T15:56:33.021Z,98208.14
2023-11-30T15:59:01.015Z,98211.03
2023-11-30T16:01:28.601Z,98205.12
2023-11-30T16:03:56.351Z,98199.88
2023-11-30T16:06:24.119Z,98193.98
2023-11-30T16:08:51.851Z,98191.45
2023-11-30T16:11:19.415Z,98188.20
2023-11-30T16:13:47.062Z,98184.30
2023-11-30T16:16:14.437Z,98179.73
2023-11-30T16:18:42.056Z,98180.10
2023-11-30T16:21:09.842Z,98179.49
2023-11-30T16:23:37.908Z,98179.79
2023-11-30T16:26:05.465Z,98171.66
2023-11-30T16:28:33.066Z,98167.36
2023-11-30T16:31:00.629Z,98162.58
2023-11-30T16:33:28.831Z,98157.12
2023-11-30T16:35:56.517Z,98154.02
2023-11-30T16:38:24.083Z,98153.27
2023-11-30T16:40:51.635Z,98154.15
2023-11-30T16:43:19.304Z,98156.59
2023-11-30T16:45:47.404Z,98165.03
2023-11-30T16:48:16.330Z,98169.64
2023-11-30T16:50:44.737Z,98175.30
2023-11-30T16:53:12.298Z,98175.55
2023-11-30T16:55:40.061Z,98175.23
2023-11-30T16:58:07.619Z,98175.34
2023-11-30T17:00:35.325Z,98170.62
2023-11-30T17:03:02.901Z,98168.58
2023-11-30T17:05:30.604Z,98163.25
2023-11-30T17:07:58.174Z,98165.55
2023-11-30T17:10:25.731Z,98164.19
2023-11-30T17:12:53.434Z,98166.10
2023-11-30T17:15:21.082Z,98167.34
2023-11-30T17:17:48.617Z,98165.03
2023-11-30T17:20:16.471Z,98172.39
2023-11-30T17:22:44.028Z,98174.65
2023-11-30T17:25:11.686Z,98167.51
2023-11-30T17:27:39.257Z,98164.06
2023-11-30T17:30:06.831Z,98167.27
2023-11-30T17:32:34.569Z,98167.23
2023-11-30T17:35:02.550Z,98162.77
2023-11-30T17:37:30.545Z,98159.40
2023-11-30T17:39:58.285Z,98160.24
2023-11-30T17:42:25.841Z,98154.93
2023-11-30T17:44:53.396Z,98152.27
2023-11-30T17:47:21.364Z,98150.44
2023-11-30T17:49:48.914Z,98149.29
2023-11-30T17:52:16.786Z,98141.85
2023-11-30T17:54:44.343Z,98132.66
2023-11-30T17:57:11.906Z,98135.39
2023-11-30T17:59:39.459Z,98137.55
2023-11-30T18:02:07.292Z,98135.76
2023-11-30T18:04:34.985Z,98140.79
2023-11-30T18:07:02.658Z,98140.27
2023-11-30T18:09:30.671Z,98139.73
2023-11-30T18:11:58.376Z,98136.82
2023-11-30T18:14:25.937Z,98133.38
2023-11-30T18:16:53.631Z,98127.81
2023-11-30T18:19:21.269Z,98121.19
2023-11-30T18:21:48.854Z,98120.41
2023-11-30T18:24:16.482Z,98118.55
2023-11-30T18:26:44.647Z,98111.20
2023-11-30T18:29:13.449Z,98106.10
2023-11-30T18:31:41.054Z,98103.19
2023-11-30T18:34:08.829Z,98104.09
2023-11-30T18:36:36.589Z,98100.16
2023-11-30T18:39:04.301Z,98103.81
2023-11-30T18:41:31.847Z,98099.48
2023-11-30T18:43:59.507Z,98103.92
2023-11-30T18:46:27.089Z,98098.86
2023-11-30T18:48:54.756Z,98091.34
2023-11-30T18:51:22.695Z,98091.91
2023-11-30T18:53:50.364Z,98097.48
2023-11-30T18:56:17.725Z,98103.40
2023-11-30T18:58:45.373Z,98112.28
2023-11-30T19:01:13.048Z,98123.84
2023-11-30T19:03:40.827Z,98123.39
2023-11-30T19:06:08.670Z,98119.95
2023-11-30T19:08:36.324Z,98122.30
2023-11-30T19:11:03.912Z,98133.31
2023-11-30T19:13:31.544Z,98131.67
2023-11-30T19:15:59.149Z,98123.95
2023-11-30T19:18:27.411Z,98126.84
2023-11-30T19:20:55.040Z,98133.67
2023-11-30T19:23:22.607Z,98137.05
2023-11-30T19:25:50.261Z,98136.15
2023-11-30T19:28:17.922Z,98132.93
2023-11-30T19:30:45.616Z,98134.88
2023-11-30T19:33:13.362Z,98127.77
2023-11-30T19:35:41.105Z,98125.13
2023-11-30T19:38:09.079Z,98117.02
2023-11-30T19:40:36.644Z,98112.23
2023-11-30T19:43:04.250Z,98111.55
2023-11-30T19:45:31.876Z,98101.61
2023-11-30T19:47:59.602Z,98079.05
2023-11-30T19:50:27.488Z,98061.23
2023-11-30T19:52:55.056Z,98056.25
2023-11-30T19:55:22.705Z,98058.74
2023-11-30T19:57:50.398Z,98066.21
2023-11-30T20:00:18.337Z,98057.72
2023-11-30T20:02:45.921Z,98054.43
2023-11-30T20:05:13.673Z,98063.45
2023-11-30T20:07:41.231Z,98064.41
2023-11-30T20:10:08.882Z,98067.80
2023-11-30T20:12:36.462Z,98075.59
2023-11-30T20:15:04.100Z,98077.16
2023-11-30T20:17:31.792Z,98085.58
2023-11-30T20:19:59.421Z,98088.46
2023-11-30T20:22:27.292Z,98091.58
2023-11-30T20:24:54.946Z,98100.21
2023-11-30T20:27:22.568Z,98107.55
2023-11-30T20:29:50.174Z,98101.03
2023-11-30T20:32:17.727Z,98102.85
2023-11-30T20:34:45.290Z,98105.06
2023-11-30T20:37:12.945Z,98096.64
2023-11-30T20:39:40.549Z,98101.85
2023-11-30T20:42:08.164Z,98116.73
2023-11-30T20:44:36.039Z,98108.96
2023-11-30T20:47:03.744Z,98104.58
2023-11-30T20:49:31.361Z,98089.80
2023-11-30T20:51:59.072Z,98085.63
2023-11-30T20:54:26.717Z,98093.60
2023-11-30T20:56:54.450Z,98096.45
2023-11-30T20:59:21.999Z,98101.80
2023-11-30T21:01:50.445Z,98100.69
2023-11-30T21:04:18.220Z,98100.38
2023-11-30T21:06:46.022Z,98102.95
2023-11-30T21:09:13.584Z,98098.74
2023-11-30T21:11:41.231Z,98087.15
2023-11-30T21:14:08.781Z,98079.63
2023-11-30T21:16:36.596Z,98083.28
2023-11-30T21:19:04.248Z,98089.48
2023-11-30T21:21:32.107Z,98088.98
2023-11-30T21:23:59.734Z,98089.73
2023-11-30T21:26:27.306Z,98091.30
2023-11-30T21:28:54.965Z,98097.77
2023-11-30T21:31:22.630Z,98105.48
2023-11-30T21:33:50.510Z,98117.98
2023-11-30T21:36:17.943Z,98120.57
2023-11-30T21:38:45.597Z,98114.42
2023-11-30T21:41:13.164Z,98117.20
2023-11-30T21:43:40.821Z,98130.36
2023-11-30T21:46:08.489Z,98133.14
2023-11-30T21:48:36.664Z,98130.31
2023-11-30T21:51:04.321Z,98134.50
2023-11-30T21:53:31.983Z,98135.13
2023-11-30T21:55:59.540Z,98124.92
2023-11-30T21:58:27.245Z,98122.39
2023-11-30T22:00:55.092Z,98114.99
2023-11-30T22:03:22.944Z,98125.28
2023-11-30T22:05:50.598Z,98137.48
2023-11-30T22:08:18.259Z,98143.90
2023-11-30T22:10:46.121Z,98147.50
2023-11-30T22:13:13.784Z,98158.16
2023-11-30T22:15:41.364Z,98162.63
2023-11-30T22:18:09.036Z,98152.79
2023-11-30T22:20:36.673Z,98144.63
2023-11-30T22:23:04.237Z,98141.80
2023-11-30T22:25:31.886Z,98135.36
2023-11-30T22:27:59.611Z,98141.88
2023-11-30T22:30:27.640Z,98136.45
2023-11-30T22:32:55.526Z,98128.96
2023-11-30T22:35:23.141Z,98121.29
2023-11-30T22:37:50.702Z,98120.13
2023-11-30T22:40:18.375Z,98115.51
2023-11-30T22:42:46.095Z,98097.91
2023-11-30T22:45:13.914Z,98101.53
2023-11-30T22:47:41.478Z,98112.61
2023-11-30T22:50:09.340Z,98112.77
2023-11-30T22:52:37.465Z,98111.81
2023-11-30T22:55:05.352Z,98094.33
2023-11-30T22:57:33.147Z,98089.29
2023-11-30T23:00:00.904Z,98102.14
2023-11-30T23:02:28.730Z,98112.66
2023-11-30T23:04:56.734Z,98110.97
2023-11-30T23:07:24.391Z,98105.52
2023-11-30T23:09:52.072Z,98112.15
2023-11-30T23:12:19.599Z,98109.25
2023-11-30T23:14:47.462Z,98098.85
2023-11-30T23:17:15.023Z,98098.05
2023-11-30T23:19:42.686Z,98097.95
2023-11-30T23:22:10.366Z,98103.26
2023-11-30T23:24:38.025Z,98095.64
2023-11-30T23:27:05.570Z,98100.83
2023-11-30T23:29:33.223Z,98105.54
2023-11-30T23:32:01.095Z,98109.09
2023-11-30T23:34:28.755Z,98108.61
2023-11-30T23:36:56.362Z,98107.83
2023-11-30T23:39:23.971Z,98110.98
2023-11-30T23:41:51.529Z,98118.95
2023-11-30T23:44:19.196Z,98122.38
2023-11-30T23:46:46.857Z,98123.40
2023-11-30T23:49:14.548Z,98123.09
2023-11-30T23:51:42.197Z,98124.73
2023-11-30T23:54:10.141Z,98115.08
2023-11-30T23:56:37.807Z,98109.20
2023-11-30T23:59:05.373Z,98109.14
